Imperial Beach, CA (91933)

11:31 AM PDT on August 29, 2015 (GMT -0700)
KCAIMPER2 | | Change Station
CLOSE
Current Station
Personal Weather Station
Location: Imperial Beach, CA
Elevation: 14 ft
Nearby Weather Stations

Elev 14 ft 32.58 °N, 117.13 °W | Updated 10 seconds ago

Clear
Clear
77.0 °F
Feels Like 78 °F
N
5.0
Wind Variable Wind from West
Gusts 10.0 mph

Today
High -- | Low -- °F
--% Chance of Precip.
Yesterday
High -- | Low -- °F
Precip. -- in
6:21 AM 7:16 PM
Full, 100% visible
Pressure 29.90 in
Visibility 9.0 miles
Clouds Clear
Heat Index 78 °F
Dew Point 73 °F
Humidity 86%
Rainfall 0.00 in
Snow Depth Not available.
UV 8 out of 12
Pollen 5.50 out of 12
Air Quality Not available.
Flu Activity Not available.
METAR KSDM 291753Z 30006KT 9SM CLR 31/19 A2991 RMK AO2 SLP123 T03060189 10311 20200 51005
Pressure 29.90 in
Visibility 9.0 miles
Clouds Clear
Heat Index 78 °F
Dew Point 73 °F
Humidity 86%
Rainfall 0.00 in
Snow Depth Not available.
UV 8 out of 12
Pollen 5.50 out of 12
Air Quality Not available.
Flu Activity Not available.
METAR KSDM 291753Z 30006KT 9SM CLR 31/19 A2991 RMK AO2 SLP123 T03060189 10311 20200 51005

10-Day Weather Forecast

×

Almanac

Astronomy

Aug. 29, 2015 Rise Set
Actual Time
Civil Twilight
Nautical Twilight
Astronomical Twilight
Moon
Length of Visible Light
Length of Day
Tomorrow will be .
, % of the Moon is Illuminated

Today's Extremes

State Highs State Lows

Community

WunderPhotos

Upload Photos

1,850,761 photos uploaded!

WunderBlogs® & News

Nearby

Air Quality

  Air Quality AQ Index Pollutant
Not available.

Snow Depth

Station Depth Elevation

Earthquake Activity

City Distance Mag. Time & Date
Minimum magnitude displayed is 2.5.

Coastal Water Temperatures

Place Temperature

Stations

Nearby Weather Stations

Station Location Temp. Windchill Dew Point Humidity Wind Precip. Elev Updated Type